»·PEaware :: SWA3329 KSAN-KSJC

SWA3329 :: KSAN-KSJC

FLIGHT INFORMATION

Flight Status: Arrived
Operator:
Southwest Airlines
More flights by this operator :: More flights under this callsign
Pilot: Odinn T. (9086)
Aircraft: BOEING 737-700
(B737)
More flights by this aircraft type
Origin: KSAN San Diego Intl-Lindbergh
United States
Destination: KSJC Mineta San Jose Intl
United States
More flights between these airports :: More routes between these airports
Route: PADRZ2 IKAYE TESEA SCTRR TROXX SILCN4
File this flight plan on PilotEdge
Remarks:
Altitude:
(Current/Filed)
40,000ft
Speed:
(Current/Filed)
454kts
Departed: 12-May-18 07:31 AM
Arrived: 12-May-18 08:38 AM
Distance/Time
Traveled:
362nm/1:07
Distance/Time
To Go:
Arrived

Flight Plot

Page will automatically refresh every two minutes.

Flight plan parsing failed; only flown route is shown


Map Options




Map Legend


Flown Route
Filed Route
Departure Airport
Arrival Airport
Navaid (VOR, NDB)
Fix

Horizontal Profiles

Position Reports

Time Latitude Longitude Heading Altitude Ground
Speed
12-May-18 07:15 32.733005 -117.200693 263 22ft 0kts
12-May-18 07:16 32.733005 -117.200693 263 22ft 0kts
12-May-18 07:17 32.733005 -117.200693 263 23ft 0kts
12-May-18 07:18 32.733005 -117.200693 263 23ft 0kts
12-May-18 07:19 32.733005 -117.200693 263 23ft 0kts
12-May-18 07:20 32.733005 -117.200693 263 23ft 0kts
12-May-18 07:21 32.733005 -117.200693 263 23ft 0kts
12-May-18 07:22 32.733005 -117.200693 263 23ft 0kts
12-May-18 07:23 32.733058 -117.200100 263 23ft 0kts
12-May-18 07:24 32.733058 -117.200100 263 23ft 0kts
12-May-18 07:25 32.733366 -117.200101 43 23ft 0kts
12-May-18 07:26 32.734745 -117.198619 111 23ft 14kts
12-May-18 07:27 32.733234 -117.192273 106 23ft 20kts
12-May-18 07:28 32.731485 -117.184841 105 23ft 24kts
12-May-18 07:29 32.729776 -117.177504 105 23ft 15kts
12-May-18 07:30 32.730309 -117.175964 285 23ft 9kts
12-May-18 07:31 32.742833 -117.214649 301 2348ft 155kts
12-May-18 07:32 32.771262 -117.266755 301 5311ft 225kts
12-May-18 07:33 32.810974 -117.337086 306 9219ft 274kts
12-May-18 07:34 32.861199 -117.413865 304 12636ft 327kts
12-May-18 07:35 32.918614 -117.503046 303 14964ft 344kts
12-May-18 07:36 32.976818 -117.593575 303 15885ft 347kts
12-May-18 07:37 33.036380 -117.686767 301 19521ft 362kts
12-May-18 07:38 33.108752 -117.775224 313 22544ft 386kts
12-May-18 07:39 33.191593 -117.859590 313 24610ft 396kts
12-May-18 07:40 33.271458 -117.953203 309 26967ft 407kts
12-May-18 07:41 33.352155 -118.050653 309 28968ft 420kts
12-May-18 07:42 33.435766 -118.151352 309 30778ft 430kts
12-May-18 07:43 33.521413 -118.253941 309 32343ft 439kts
12-May-18 07:44 33.607100 -118.357119 309 34248ft 435kts
12-May-18 07:45 33.692026 -118.459763 309 35985ft 430kts
12-May-18 07:46 33.775933 -118.561497 309 37487ft 427kts
12-May-18 07:47 33.858968 -118.662478 309 38828ft 424kts
12-May-18 07:48 33.941794 -118.763308 309 39975ft 422kts
12-May-18 07:49 34.024429 -118.864361 309 40034ft 421kts
12-May-18 07:50 34.105660 -118.964223 309 40037ft 416kts
12-May-18 07:51 34.187481 -119.063271 310 40025ft 416kts
12-May-18 07:52 34.269507 -119.161162 310 40024ft 414kts
12-May-18 07:53 34.351121 -119.258993 310 40029ft 412kts
12-May-18 07:54 34.432800 -119.356773 310 40027ft 412kts
12-May-18 07:55 34.513833 -119.454025 310 40028ft 409kts
12-May-18 07:56 34.594442 -119.551207 310 40026ft 404kts
12-May-18 07:57 34.673884 -119.647307 310 40024ft 404kts
12-May-18 07:58 34.753126 -119.743457 310 40018ft 401kts
12-May-18 07:59 34.832337 -119.839853 310 40024ft 401kts
12-May-18 08:00 34.910873 -119.935708 311 40022ft 399kts
12-May-18 08:01 34.989366 -120.031516 311 40017ft 401kts
12-May-18 08:02 35.068170 -120.128321 311 40027ft 400kts
12-May-18 08:03 35.146389 -120.224794 311 40027ft 399kts
12-May-18 08:04 35.232511 -120.311737 319 40024ft 401kts
12-May-18 08:05 35.321965 -120.393372 319 40012ft 401kts
12-May-18 08:06 35.411093 -120.475252 319 40012ft 400kts
12-May-18 08:07 35.500252 -120.557487 319 40006ft 400kts
12-May-18 08:08 35.592440 -120.634341 323 40001ft 402kts
12-May-18 08:09 35.686805 -120.707771 323 40000ft 402kts
12-May-18 08:10 35.781101 -120.781590 323 39392ft 396kts
12-May-18 08:11 35.873597 -120.854514 322 36441ft 394kts
12-May-18 08:12 35.967003 -120.928583 322 32210ft 404kts
12-May-18 08:13 36.055334 -121.004909 318 30041ft 370kts
12-May-18 08:14 36.137249 -121.083536 319 28563ft 372kts
12-May-18 08:15 36.217868 -121.160597 320 26439ft 362kts
12-May-18 08:16 36.297131 -121.236558 322 24043ft 359kts
12-May-18 08:17 36.374208 -121.310475 323 21060ft 351kts
12-May-18 08:18 36.451173 -121.384701 323 18320ft 336kts
12-May-18 08:19 36.525852 -121.449639 331 16979ft 326kts
12-May-18 08:20 36.605341 -121.503103 331 15980ft 323kts
12-May-18 08:21 36.683937 -121.556608 331 14980ft 320kts
12-May-18 08:22 36.762007 -121.609962 331 13977ft 317kts
12-May-18 08:23 36.838928 -121.662435 331 13013ft 313kts
12-May-18 08:24 36.914908 -121.714597 331 11753ft 299kts
12-May-18 08:25 36.984258 -121.762354 331 10527ft 271kts
12-May-18 08:26 37.049161 -121.807023 331 9388ft 267kts
12-May-18 08:27 37.114088 -121.851643 331 8224ft 264kts
12-May-18 08:28 37.178365 -121.895660 332 6950ft 260kts
12-May-18 08:29 37.242195 -121.939395 332 5684ft 256kts
12-May-18 08:30 37.302677 -121.983530 322 4487ft 249kts
12-May-18 08:31 37.352447 -122.043483 317 3975ft 246kts
12-May-18 08:32 37.400770 -122.103211 318 3035ft 233kts
12-May-18 08:33 37.448302 -122.114591 57 2748ft 203kts
12-May-18 08:34 37.439272 -122.051253 103 2051ft 170kts
12-May-18 08:35 37.424763 -121.996350 113 1507ft 166kts
12-May-18 08:36 37.393726 -121.960907 135 666ft 134kts
12-May-18 08:37 37.368269 -121.932768 141 71ft 95kts
12-May-18 08:38 37.363145 -121.926274 52 70ft 0kts
12-May-18 08:39 37.364635 -121.924908 49 70ft 10kts
12-May-18 08:40 37.365034 -121.924349 48 70ft 0kts

Navigation Log

Ident Type
Flight plan parsing failed, navigation log unavailable